sensor_id;sensor_type;location;lat;lon;timestamp;P1;durP1;ratioP1;P2;durP2;ratioP2
3704;SDS011;1868;48.918;9.438;2022-12-05T00:02:03;37.13;;;18.70;;
3704;SDS011;1868;48.918;9.438;2022-12-05T00:04:33;33.47;;;18.70;;
3704;SDS011;1868;48.918;9.438;2022-12-05T00:07:01;35.37;;;18.70;;
3704;SDS011;1868;48.918;9.438;2022-12-05T00:09:30;29.63;;;16.50;;
3704;SDS011;1868;48.918;9.438;2022-12-05T00:11:58;29.43;;;16.13;;
3704;SDS011;1868;48.918;9.438;2022-12-05T00:14:26;31.67;;;17.77;;
3704;SDS011;1868;48.918;9.438;2022-12-05T00:16:54;27.80;;;15.23;;
3704;SDS011;1868;48.918;9.438;2022-12-05T00:19:23;30.93;;;15.87;;
3704;SDS011;1868;48.918;9.438;2022-12-05T00:21:52;33.37;;;18.40;;
3704;SDS011;1868;48.918;9.438;2022-12-05T00:24:22;35.13;;;17.33;;
3704;SDS011;1868;48.918;9.438;2022-12-05T00:26:51;34.33;;;16.57;;
3704;SDS011;1868;48.918;9.438;2022-12-05T00:29:19;37.40;;;19.63;;
3704;SDS011;1868;48.918;9.438;2022-12-05T00:31:47;31.83;;;16.73;;
3704;SDS011;1868;48.918;9.438;2022-12-05T00:34:15;29.30;;;16.90;;
3704;SDS011;1868;48.918;9.438;2022-12-05T00:36:44;25.40;;;15.40;;
3704;SDS011;1868;48.918;9.438;2022-12-05T00:39:13;28.30;;;14.63;;
3704;SDS011;1868;48.918;9.438;2022-12-05T00:41:42;26.30;;;14.37;;
3704;SDS011;1868;48.918;9.438;2022-12-05T00:44:11;31.23;;;14.60;;
3704;SDS011;1868;48.918;9.438;2022-12-05T00:46:40;29.37;;;15.30;;
3704;SDS011;1868;48.918;9.438;2022-12-05T00:49:09;24.00;;;13.00;;
3704;SDS011;1868;48.918;9.438;2022-12-05T00:51:39;23.07;;;12.47;;
3704;SDS011;1868;48.918;9.438;2022-12-05T00:54:09;19.40;;;11.83;;
3704;SDS011;1868;48.918;9.438;2022-12-05T00:56:41;25.10;;;13.90;;
3704;SDS011;1868;48.918;9.438;2022-12-05T00:59:11;23.60;;;13.83;;
3704;SDS011;1868;48.918;9.438;2022-12-05T01:01:45;24.23;;;13.83;;
3704;SDS011;1868;48.918;9.438;2022-12-05T01:04:16;24.40;;;13.07;;
3704;SDS011;1868;48.918;9.438;2022-12-05T01:06:47;24.43;;;13.00;;
3704;SDS011;1868;48.918;9.438;2022-12-05T01:09:17;25.33;;;13.50;;
3704;SDS011;1868;48.918;9.438;2022-12-05T01:11:48;25.87;;;13.90;;
3704;SDS011;1868;48.918;9.438;2022-12-05T01:14:17;29.83;;;15.47;;
3704;SDS011;1868;48.918;9.438;2022-12-05T01:16:49;26.63;;;14.60;;
3704;SDS011;1868;48.918;9.438;2022-12-05T01:19:20;26.20;;;14.07;;
3704;SDS011;1868;48.918;9.438;2022-12-05T01:21:50;21.33;;;13.40;;
3704;SDS011;1868;48.918;9.438;2022-12-05T01:24:19;26.27;;;14.30;;
3704;SDS011;1868;48.918;9.438;2022-12-05T01:26:50;27.10;;;15.20;;
3704;SDS011;1868;48.918;9.438;2022-12-05T01:29:20;23.73;;;12.97;;
3704;SDS011;1868;48.918;9.438;2022-12-05T01:31:49;27.20;;;14.33;;
3704;SDS011;1868;48.918;9.438;2022-12-05T01:34:18;25.10;;;13.97;;
3704;SDS011;1868;48.918;9.438;2022-12-05T01:36:48;29.50;;;14.40;;
3704;SDS011;1868;48.918;9.438;2022-12-05T01:39:16;24.53;;;14.00;;
3704;SDS011;1868;48.918;9.438;2022-12-05T01:41:46;25.30;;;14.50;;
3704;SDS011;1868;48.918;9.438;2022-12-05T01:47:32;25.30;;;12.70;;
3704;SDS011;1868;48.918;9.438;2022-12-05T01:50:03;26.30;;;13.43;;
3704;SDS011;1868;48.918;9.438;2022-12-05T01:52:33;26.57;;;15.00;;
3704;SDS011;1868;48.918;9.438;2022-12-05T01:55:03;29.87;;;14.07;;
3704;SDS011;1868;48.918;9.438;2022-12-05T01:57:36;24.07;;;12.73;;
3704;SDS011;1868;48.918;9.438;2022-12-05T02:00:09;25.57;;;14.17;;
3704;SDS011;1868;48.918;9.438;2022-12-05T02:02:42;24.83;;;13.03;;
3704;SDS011;1868;48.918;9.438;2022-12-05T02:05:16;20.60;;;12.60;;
3704;SDS011;1868;48.918;9.438;2022-12-05T02:07:48;25.93;;;13.90;;
3704;SDS011;1868;48.918;9.438;2022-12-05T02:10:17;27.60;;;15.70;;
3704;SDS011;1868;48.918;9.438;2022-12-05T02:12:46;25.33;;;13.47;;
3704;SDS011;1868;48.918;9.438;2022-12-05T02:15:21;23.80;;;13.70;;
3704;SDS011;1868;48.918;9.438;2022-12-05T02:18:12;26.87;;;13.03;;
3704;SDS011;1868;48.918;9.438;2022-12-05T02:21:14;22.87;;;13.87;;
3704;SDS011;1868;48.918;9.438;2022-12-05T02:27:24;20.80;;;13.57;;
3704;SDS011;1868;48.918;9.438;2022-12-05T02:30:20;22.47;;;12.40;;
3704;SDS011;1868;48.918;9.438;2022-12-05T02:32:52;23.53;;;14.27;;
3704;SDS011;1868;48.918;9.438;2022-12-05T02:35:40;25.60;;;15.00;;
3704;SDS011;1868;48.918;9.438;2022-12-05T02:38:21;18.23;;;11.33;;
3704;SDS011;1868;48.918;9.438;2022-12-05T02:40:58;21.80;;;12.73;;
3704;SDS011;1868;48.918;9.438;2022-12-05T02:43:36;22.20;;;12.80;;
3704;SDS011;1868;48.918;9.438;2022-12-05T02:46:11;19.83;;;13.40;;
3704;SDS011;1868;48.918;9.438;2022-12-05T02:48:44;24.07;;;13.40;;
3704;SDS011;1868;48.918;9.438;2022-12-05T02:51:18;24.73;;;13.20;;
3704;SDS011;1868;48.918;9.438;2022-12-05T02:53:51;24.37;;;14.07;;
3704;SDS011;1868;48.918;9.438;2022-12-05T02:56:24;24.97;;;13.10;;
3704;SDS011;1868;48.918;9.438;2022-12-05T02:58:54;23.70;;;13.57;;
3704;SDS011;1868;48.918;9.438;2022-12-05T03:01:26;19.43;;;11.87;;
3704;SDS011;1868;48.918;9.438;2022-12-05T03:03:58;19.03;;;11.50;;
3704;SDS011;1868;48.918;9.438;2022-12-05T03:06:30;16.93;;;10.37;;
3704;SDS011;1868;48.918;9.438;2022-12-05T03:09:04;16.50;;;10.30;;
3704;SDS011;1868;48.918;9.438;2022-12-05T03:11:37;18.20;;;11.67;;
3704;SDS011;1868;48.918;9.438;2022-12-05T03:14:10;17.60;;;11.20;;
3704;SDS011;1868;48.918;9.438;2022-12-05T03:16:45;16.40;;;10.80;;
3704;SDS011;1868;48.918;9.438;2022-12-05T03:19:16;16.33;;;11.13;;
3704;SDS011;1868;48.918;9.438;2022-12-05T03:21:52;15.37;;;9.83;;
3704;SDS011;1868;48.918;9.438;2022-12-05T03:24:27;17.67;;;9.90;;
3704;SDS011;1868;48.918;9.438;2022-12-05T03:26:59;14.60;;;9.77;;
3704;SDS011;1868;48.918;9.438;2022-12-05T03:29:35;16.33;;;10.10;;
3704;SDS011;1868;48.918;9.438;2022-12-05T03:32:10;20.63;;;10.70;;
3704;SDS011;1868;48.918;9.438;2022-12-05T03:34:49;12.27;;;8.37;;
3704;SDS011;1868;48.918;9.438;2022-12-05T03:37:28;13.70;;;9.30;;
3704;SDS011;1868;48.918;9.438;2022-12-05T03:40:07;14.40;;;9.73;;
3704;SDS011;1868;48.918;9.438;2022-12-05T03:42:47;15.10;;;8.47;;
3704;SDS011;1868;48.918;9.438;2022-12-05T03:45:25;15.73;;;10.27;;
3704;SDS011;1868;48.918;9.438;2022-12-05T03:48:03;16.30;;;9.37;;
3704;SDS011;1868;48.918;9.438;2022-12-05T03:50:37;14.30;;;9.87;;
3704;SDS011;1868;48.918;9.438;2022-12-05T03:53:12;13.77;;;8.43;;
3704;SDS011;1868;48.918;9.438;2022-12-05T03:55:48;16.53;;;8.27;;
3704;SDS011;1868;48.918;9.438;2022-12-05T03:58:25;12.10;;;8.43;;
3704;SDS011;1868;48.918;9.438;2022-12-05T04:00:57;13.80;;;8.60;;
3704;SDS011;1868;48.918;9.438;2022-12-05T04:03:31;12.23;;;8.00;;
3704;SDS011;1868;48.918;9.438;2022-12-05T04:06:15;15.27;;;8.90;;
3704;SDS011;1868;48.918;9.438;2022-12-05T04:08:49;12.90;;;8.47;;
3704;SDS011;1868;48.918;9.438;2022-12-05T04:11:23;12.97;;;8.57;;
3704;SDS011;1868;48.918;9.438;2022-12-05T04:13:54;15.87;;;9.13;;
3704;SDS011;1868;48.918;9.438;2022-12-05T04:16:28;17.43;;;9.57;;
3704;SDS011;1868;48.918;9.438;2022-12-05T04:19:23;15.50;;;9.50;;
3704;SDS011;1868;48.918;9.438;2022-12-05T04:22:17;14.87;;;9.03;;
3704;SDS011;1868;48.918;9.438;2022-12-05T04:24:45;13.67;;;8.93;;
3704;SDS011;1868;48.918;9.438;2022-12-05T04:27:32;17.40;;;9.30;;
3704;SDS011;1868;48.918;9.438;2022-12-05T04:30:09;16.00;;;10.13;;
3704;SDS011;1868;48.918;9.438;2022-12-05T04:32:44;14.47;;;9.30;;
3704;SDS011;1868;48.918;9.438;2022-12-05T04:35:17;14.17;;;10.23;;
3704;SDS011;1868;48.918;9.438;2022-12-05T04:37:51;14.33;;;9.80;;
3704;SDS011;1868;48.918;9.438;2022-12-05T04:40:27;13.43;;;9.00;;
3704;SDS011;1868;48.918;9.438;2022-12-05T04:43:01;13.60;;;8.13;;
3704;SDS011;1868;48.918;9.438;2022-12-05T04:45:30;15.87;;;10.60;;
3704;SDS011;1868;48.918;9.438;2022-12-05T04:48:01;20.13;;;9.63;;
3704;SDS011;1868;48.918;9.438;2022-12-05T04:50:35;12.87;;;8.90;;
3704;SDS011;1868;48.918;9.438;2022-12-05T04:53:07;15.27;;;9.47;;
3704;SDS011;1868;48.918;9.438;2022-12-05T04:55:38;17.80;;;11.33;;
3704;SDS011;1868;48.918;9.438;2022-12-05T04:58:11;12.30;;;9.00;;
3704;SDS011;1868;48.918;9.438;2022-12-05T05:00:45;14.30;;;9.07;;
3704;SDS011;1868;48.918;9.438;2022-12-05T05:03:20;15.13;;;8.70;;
3704;SDS011;1868;48.918;9.438;2022-12-05T05:05:54;14.63;;;10.30;;
3704;SDS011;1868;48.918;9.438;2022-12-05T05:08:24;12.30;;;8.17;;
3704;SDS011;1868;48.918;9.438;2022-12-05T05:11:03;12.43;;;9.10;;
3704;SDS011;1868;48.918;9.438;2022-12-05T05:13:37;11.93;;;8.87;;
3704;SDS011;1868;48.918;9.438;2022-12-05T05:16:06;15.43;;;8.40;;
3704;SDS011;1868;48.918;9.438;2022-12-05T05:18:39;13.17;;;8.70;;
3704;SDS011;1868;48.918;9.438;2022-12-05T05:21:14;15.47;;;9.30;;
3704;SDS011;1868;48.918;9.438;2022-12-05T05:23:51;11.77;;;8.17;;
3704;SDS011;1868;48.918;9.438;2022-12-05T05:26:20;13.80;;;9.50;;
3704;SDS011;1868;48.918;9.438;2022-12-05T05:28:50;14.37;;;8.80;;
3704;SDS011;1868;48.918;9.438;2022-12-05T05:31:19;14.00;;;9.63;;
3704;SDS011;1868;48.918;9.438;2022-12-05T05:33:48;14.30;;;8.87;;
3704;SDS011;1868;48.918;9.438;2022-12-05T05:36:19;15.73;;;10.00;;
3704;SDS011;1868;48.918;9.438;2022-12-05T05:38:50;12.47;;;8.67;;
3704;SDS011;1868;48.918;9.438;2022-12-05T05:41:21;12.43;;;8.30;;
3704;SDS011;1868;48.918;9.438;2022-12-05T05:43:51;14.33;;;9.60;;
3704;SDS011;1868;48.918;9.438;2022-12-05T05:46:21;13.33;;;9.20;;
3704;SDS011;1868;48.918;9.438;2022-12-05T05:48:53;15.07;;;9.00;;
3704;SDS011;1868;48.918;9.438;2022-12-05T05:51:23;12.07;;;8.00;;
3704;SDS011;1868;48.918;9.438;2022-12-05T05:53:54;13.13;;;8.50;;
3704;SDS011;1868;48.918;9.438;2022-12-05T05:56:23;16.23;;;10.37;;
3704;SDS011;1868;48.918;9.438;2022-12-05T05:58:55;15.47;;;10.13;;
3704;SDS011;1868;48.918;9.438;2022-12-05T06:01:26;12.70;;;9.50;;
3704;SDS011;1868;48.918;9.438;2022-12-05T06:03:56;12.93;;;8.87;;
3704;SDS011;1868;48.918;9.438;2022-12-05T06:06:26;15.50;;;10.03;;
3704;SDS011;1868;48.918;9.438;2022-12-05T06:08:54;17.37;;;9.50;;
3704;SDS011;1868;48.918;9.438;2022-12-05T06:11:23;16.80;;;10.70;;
3704;SDS011;1868;48.918;9.438;2022-12-05T06:13:53;15.87;;;9.27;;
3704;SDS011;1868;48.918;9.438;2022-12-05T06:16:23;15.10;;;9.27;;
3704;SDS011;1868;48.918;9.438;2022-12-05T06:18:52;16.03;;;9.90;;
3704;SDS011;1868;48.918;9.438;2022-12-05T06:21:20;16.97;;;11.07;;
3704;SDS011;1868;48.918;9.438;2022-12-05T06:23:50;18.50;;;11.57;;
3704;SDS011;1868;48.918;9.438;2022-12-05T06:26:19;16.27;;;10.00;;
3704;SDS011;1868;48.918;9.438;2022-12-05T06:28:49;14.10;;;9.83;;
3704;SDS011;1868;48.918;9.438;2022-12-05T06:31:18;14.97;;;9.90;;
3704;SDS011;1868;48.918;9.438;2022-12-05T06:33:48;16.23;;;10.37;;
3704;SDS011;1868;48.918;9.438;2022-12-05T06:36:18;17.80;;;11.27;;
3704;SDS011;1868;48.918;9.438;2022-12-05T06:38:48;15.33;;;10.17;;
3704;SDS011;1868;48.918;9.438;2022-12-05T06:41:18;16.93;;;11.30;;
3704;SDS011;1868;48.918;9.438;2022-12-05T06:43:50;13.17;;;9.97;;
3704;SDS011;1868;48.918;9.438;2022-12-05T06:46:27;18.40;;;11.77;;
3704;SDS011;1868;48.918;9.438;2022-12-05T06:48:56;14.63;;;9.13;;
3704;SDS011;1868;48.918;9.438;2022-12-05T06:51:25;15.57;;;9.43;;
3704;SDS011;1868;48.918;9.438;2022-12-05T06:53:54;17.37;;;9.90;;
3704;SDS011;1868;48.918;9.438;2022-12-05T06:56:24;14.40;;;9.60;;
3704;SDS011;1868;48.918;9.438;2022-12-05T06:58:52;16.10;;;10.53;;
3704;SDS011;1868;48.918;9.438;2022-12-05T07:01:21;17.63;;;9.77;;
3704;SDS011;1868;48.918;9.438;2022-12-05T07:04:09;20.53;;;10.03;;
3704;SDS011;1868;48.918;9.438;2022-12-05T07:06:41;16.53;;;10.37;;
3704;SDS011;1868;48.918;9.438;2022-12-05T07:09:16;15.00;;;8.93;;
3704;SDS011;1868;48.918;9.438;2022-12-05T07:11:48;14.30;;;9.57;;
3704;SDS011;1868;48.918;9.438;2022-12-05T07:14:17;18.17;;;10.70;;
3704;SDS011;1868;48.918;9.438;2022-12-05T07:17:05;14.77;;;9.77;;
3704;SDS011;1868;48.918;9.438;2022-12-05T07:19:33;16.83;;;9.80;;
3704;SDS011;1868;48.918;9.438;2022-12-05T07:22:02;17.33;;;10.23;;
3704;SDS011;1868;48.918;9.438;2022-12-05T07:24:37;17.63;;;10.77;;
3704;SDS011;1868;48.918;9.438;2022-12-05T07:27:06;16.90;;;11.03;;
3704;SDS011;1868;48.918;9.438;2022-12-05T07:29:35;17.50;;;10.60;;
3704;SDS011;1868;48.918;9.438;2022-12-05T07:32:03;13.90;;;10.03;;
3704;SDS011;1868;48.918;9.438;2022-12-05T07:34:32;14.50;;;9.77;;
3704;SDS011;1868;48.918;9.438;2022-12-05T07:37:00;17.73;;;10.73;;
3704;SDS011;1868;48.918;9.438;2022-12-05T07:39:29;17.67;;;10.00;;
3704;SDS011;1868;48.918;9.438;2022-12-05T07:41:57;15.47;;;9.47;;
3704;SDS011;1868;48.918;9.438;2022-12-05T07:44:26;17.47;;;9.80;;
3704;SDS011;1868;48.918;9.438;2022-12-05T07:46:55;16.23;;;10.80;;
3704;SDS011;1868;48.918;9.438;2022-12-05T07:49:24;13.13;;;8.83;;
3704;SDS011;1868;48.918;9.438;2022-12-05T07:51:52;15.53;;;10.10;;
3704;SDS011;1868;48.918;9.438;2022-12-05T07:54:20;14.00;;;10.30;;
3704;SDS011;1868;48.918;9.438;2022-12-05T07:56:49;17.00;;;10.27;;
3704;SDS011;1868;48.918;9.438;2022-12-05T07:59:17;18.17;;;11.03;;
3704;SDS011;1868;48.918;9.438;2022-12-05T08:01:47;17.13;;;9.80;;
3704;SDS011;1868;48.918;9.438;2022-12-05T08:04:15;17.33;;;10.30;;
3704;SDS011;1868;48.918;9.438;2022-12-05T08:06:44;18.90;;;10.30;;
3704;SDS011;1868;48.918;9.438;2022-12-05T08:09:12;16.97;;;9.93;;
3704;SDS011;1868;48.918;9.438;2022-12-05T08:11:40;19.57;;;11.67;;
3704;SDS011;1868;48.918;9.438;2022-12-05T08:14:16;17.07;;;10.77;;
3704;SDS011;1868;48.918;9.438;2022-12-05T08:16:44;18.97;;;11.37;;
3704;SDS011;1868;48.918;9.438;2022-12-05T08:19:14;16.30;;;10.50;;
3704;SDS011;1868;48.918;9.438;2022-12-05T08:21:43;17.60;;;8.63;;
3704;SDS011;1868;48.918;9.438;2022-12-05T08:24:11;18.50;;;12.10;;
3704;SDS011;1868;48.918;9.438;2022-12-05T08:26:40;14.73;;;10.40;;
3704;SDS011;1868;48.918;9.438;2022-12-05T08:29:09;14.33;;;10.20;;
3704;SDS011;1868;48.918;9.438;2022-12-05T08:31:39;13.77;;;9.90;;
3704;SDS011;1868;48.918;9.438;2022-12-05T08:34:13;13.70;;;9.37;;
3704;SDS011;1868;48.918;9.438;2022-12-05T08:36:44;15.80;;;10.17;;
3704;SDS011;1868;48.918;9.438;2022-12-05T08:39:13;13.50;;;8.90;;
3704;SDS011;1868;48.918;9.438;2022-12-05T08:41:44;13.47;;;9.30;;
3704;SDS011;1868;48.918;9.438;2022-12-05T08:44:14;15.97;;;10.00;;
3704;SDS011;1868;48.918;9.438;2022-12-05T08:46:44;13.97;;;9.50;;
3704;SDS011;1868;48.918;9.438;2022-12-05T08:49:17;16.70;;;9.97;;
3704;SDS011;1868;48.918;9.438;2022-12-05T08:51:45;15.63;;;10.30;;
3704;SDS011;1868;48.918;9.438;2022-12-05T08:54:14;16.27;;;10.00;;
3704;SDS011;1868;48.918;9.438;2022-12-05T08:56:42;15.77;;;10.17;;
3704;SDS011;1868;48.918;9.438;2022-12-05T08:59:11;16.77;;;10.43;;
3704;SDS011;1868;48.918;9.438;2022-12-05T09:01:39;16.67;;;10.40;;
3704;SDS011;1868;48.918;9.438;2022-12-05T09:04:08;16.37;;;10.33;;
3704;SDS011;1868;48.918;9.438;2022-12-05T09:06:39;16.43;;;10.07;;
3704;SDS011;1868;48.918;9.438;2022-12-05T09:09:08;14.87;;;9.60;;
3704;SDS011;1868;48.918;9.438;2022-12-05T09:11:39;15.97;;;9.27;;
3704;SDS011;1868;48.918;9.438;2022-12-05T09:14:12;17.87;;;10.80;;
3704;SDS011;1868;48.918;9.438;2022-12-05T09:16:42;15.50;;;11.07;;
3704;SDS011;1868;48.918;9.438;2022-12-05T09:19:13;16.83;;;10.47;;
3704;SDS011;1868;48.918;9.438;2022-12-05T09:21:47;13.20;;;9.33;;
3704;SDS011;1868;48.918;9.438;2022-12-05T09:24:15;14.87;;;8.93;;
3704;SDS011;1868;48.918;9.438;2022-12-05T09:26:43;14.00;;;9.47;;
3704;SDS011;1868;48.918;9.438;2022-12-05T09:29:12;17.43;;;10.60;;
3704;SDS011;1868;48.918;9.438;2022-12-05T09:31:43;13.80;;;8.50;;
3704;SDS011;1868;48.918;9.438;2022-12-05T09:34:14;10.47;;;7.70;;
3704;SDS011;1868;48.918;9.438;2022-12-05T09:36:44;13.47;;;8.80;;
3704;SDS011;1868;48.918;9.438;2022-12-05T09:39:23;15.53;;;10.30;;
3704;SDS011;1868;48.918;9.438;2022-12-05T09:41:58;14.40;;;9.37;;
3704;SDS011;1868;48.918;9.438;2022-12-05T09:45:03;15.40;;;9.83;;
3704;SDS011;1868;48.918;9.438;2022-12-05T09:47:43;13.50;;;8.47;;
3704;SDS011;1868;48.918;9.438;2022-12-05T09:50:18;15.83;;;9.70;;
3704;SDS011;1868;48.918;9.438;2022-12-05T09:52:54;13.90;;;9.20;;
3704;SDS011;1868;48.918;9.438;2022-12-05T09:55:42;11.90;;;9.10;;
3704;SDS011;1868;48.918;9.438;2022-12-05T09:58:20;12.83;;;7.87;;
3704;SDS011;1868;48.918;9.438;2022-12-05T10:00:57;13.73;;;8.53;;
3704;SDS011;1868;48.918;9.438;2022-12-05T10:03:34;14.07;;;9.80;;
3704;SDS011;1868;48.918;9.438;2022-12-05T10:06:11;11.03;;;8.00;;
3704;SDS011;1868;48.918;9.438;2022-12-05T10:08:52;12.93;;;9.60;;
3704;SDS011;1868;48.918;9.438;2022-12-05T10:11:35;12.87;;;9.13;;
3704;SDS011;1868;48.918;9.438;2022-12-05T10:14:10;11.77;;;8.80;;
3704;SDS011;1868;48.918;9.438;2022-12-05T10:16:50;9.33;;;8.00;;
3704;SDS011;1868;48.918;9.438;2022-12-05T10:19:23;11.50;;;7.63;;
3704;SDS011;1868;48.918;9.438;2022-12-05T10:21:58;12.80;;;9.07;;
3704;SDS011;1868;48.918;9.438;2022-12-05T10:24:35;12.77;;;9.20;;
3704;SDS011;1868;48.918;9.438;2022-12-05T10:27:06;9.70;;;8.43;;
3704;SDS011;1868;48.918;9.438;2022-12-05T10:29:41;10.17;;;8.20;;
3704;SDS011;1868;48.918;9.438;2022-12-05T10:32:15;9.70;;;7.37;;
3704;SDS011;1868;48.918;9.438;2022-12-05T10:34:46;10.87;;;8.13;;
3704;SDS011;1868;48.918;9.438;2022-12-05T10:37:17;17.53;;;8.03;;
3704;SDS011;1868;48.918;9.438;2022-12-05T10:39:49;8.83;;;7.00;;
3704;SDS011;1868;48.918;9.438;2022-12-05T10:42:22;11.93;;;8.00;;
3704;SDS011;1868;48.918;9.438;2022-12-05T10:44:54;9.47;;;7.57;;
3704;SDS011;1868;48.918;9.438;2022-12-05T10:47:24;9.83;;;7.53;;
3704;SDS011;1868;48.918;9.438;2022-12-05T10:49:52;11.83;;;7.70;;
3704;SDS011;1868;48.918;9.438;2022-12-05T10:52:25;12.00;;;8.00;;
3704;SDS011;1868;48.918;9.438;2022-12-05T10:54:56;11.63;;;8.20;;
3704;SDS011;1868;48.918;9.438;2022-12-05T10:57:29;14.20;;;8.80;;
3704;SDS011;1868;48.918;9.438;2022-12-05T11:00:08;12.80;;;8.93;;
3704;SDS011;1868;48.918;9.438;2022-12-05T11:02:41;13.23;;;8.90;;
3704;SDS011;1868;48.918;9.438;2022-12-05T11:05:10;11.70;;;9.17;;
3704;SDS011;1868;48.918;9.438;2022-12-05T11:07:44;15.80;;;10.70;;
3704;SDS011;1868;48.918;9.438;2022-12-05T11:10:20;18.67;;;10.90;;
3704;SDS011;1868;48.918;9.438;2022-12-05T11:12:53;17.33;;;11.13;;
3704;SDS011;1868;48.918;9.438;2022-12-05T11:15:24;17.50;;;11.37;;
3704;SDS011;1868;48.918;9.438;2022-12-05T11:17:57;17.90;;;11.83;;
3704;SDS011;1868;48.918;9.438;2022-12-05T11:20:51;16.20;;;11.20;;
3704;SDS011;1868;48.918;9.438;2022-12-05T11:23:27;16.10;;;11.20;;
3704;SDS011;1868;48.918;9.438;2022-12-05T11:25:59;17.33;;;11.00;;
3704;SDS011;1868;48.918;9.438;2022-12-05T11:28:31;17.50;;;11.87;;
3704;SDS011;1868;48.918;9.438;2022-12-05T11:31:04;18.20;;;12.13;;
3704;SDS011;1868;48.918;9.438;2022-12-05T11:33:43;13.80;;;9.87;;
3704;SDS011;1868;48.918;9.438;2022-12-05T11:36:34;13.17;;;9.70;;
3704;SDS011;1868;48.918;9.438;2022-12-05T11:39:08;12.57;;;8.83;;
3704;SDS011;1868;48.918;9.438;2022-12-05T11:41:49;15.20;;;9.80;;
3704;SDS011;1868;48.918;9.438;2022-12-05T11:44:39;14.47;;;10.83;;
3704;SDS011;1868;48.918;9.438;2022-12-05T11:47:35;21.20;;;10.70;;
3704;SDS011;1868;48.918;9.438;2022-12-05T11:50:23;15.67;;;10.20;;
3704;SDS011;1868;48.918;9.438;2022-12-05T11:53:06;14.00;;;10.07;;
3704;SDS011;1868;48.918;9.438;2022-12-05T11:55:52;14.90;;;10.03;;
3704;SDS011;1868;48.918;9.438;2022-12-05T11:58:40;13.33;;;9.60;;
3704;SDS011;1868;48.918;9.438;2022-12-05T12:01:25;12.53;;;8.77;;
3704;SDS011;1868;48.918;9.438;2022-12-05T12:04:23;12.63;;;8.70;;
3704;SDS011;1868;48.918;9.438;2022-12-05T12:07:13;13.90;;;9.17;;
3704;SDS011;1868;48.918;9.438;2022-12-05T12:09:53;12.83;;;9.37;;
3704;SDS011;1868;48.918;9.438;2022-12-05T12:12:36;14.60;;;9.80;;
3704;SDS011;1868;48.918;9.438;2022-12-05T12:15:22;12.30;;;9.50;;
3704;SDS011;1868;48.918;9.438;2022-12-05T12:18:16;15.67;;;11.00;;
3704;SDS011;1868;48.918;9.438;2022-12-05T12:21:19;20.70;;;10.37;;
3704;SDS011;1868;48.918;9.438;2022-12-05T12:24:05;13.57;;;9.20;;
3704;SDS011;1868;48.918;9.438;2022-12-05T12:26:48;14.37;;;9.10;;
3704;SDS011;1868;48.918;9.438;2022-12-05T12:29:30;16.37;;;10.70;;
3704;SDS011;1868;48.918;9.438;2022-12-05T12:32:16;11.80;;;8.73;;
3704;SDS011;1868;48.918;9.438;2022-12-05T12:35:00;11.93;;;9.10;;
3704;SDS011;1868;48.918;9.438;2022-12-05T12:37:46;14.10;;;10.10;;
3704;SDS011;1868;48.918;9.438;2022-12-05T12:40:29;12.60;;;9.27;;
3704;SDS011;1868;48.918;9.438;2022-12-05T12:43:06;16.33;;;10.20;;
3704;SDS011;1868;48.918;9.438;2022-12-05T12:46:15;15.80;;;10.70;;
3704;SDS011;1868;48.918;9.438;2022-12-05T12:49:08;16.00;;;9.87;;
3704;SDS011;1868;48.918;9.438;2022-12-05T12:51:55;17.13;;;10.10;;
3704;SDS011;1868;48.918;9.438;2022-12-05T12:54:40;13.47;;;10.97;;
3704;SDS011;1868;48.918;9.438;2022-12-05T12:57:31;13.00;;;9.50;;
3704;SDS011;1868;48.918;9.438;2022-12-05T13:00:21;12.30;;;8.90;;
3704;SDS011;1868;48.918;9.438;2022-12-05T13:02:58;14.80;;;9.37;;
3704;SDS011;1868;48.918;9.438;2022-12-05T13:05:35;14.17;;;10.17;;
3704;SDS011;1868;48.918;9.438;2022-12-05T13:08:10;14.37;;;8.67;;
3704;SDS011;1868;48.918;9.438;2022-12-05T13:10:46;12.43;;;9.30;;
3704;SDS011;1868;48.918;9.438;2022-12-05T13:13:17;12.90;;;9.33;;
3704;SDS011;1868;48.918;9.438;2022-12-05T13:15:50;13.73;;;9.63;;
3704;SDS011;1868;48.918;9.438;2022-12-05T13:18:21;11.50;;;9.90;;
3704;SDS011;1868;48.918;9.438;2022-12-05T13:20:53;13.50;;;10.10;;
3704;SDS011;1868;48.918;9.438;2022-12-05T13:23:24;13.30;;;9.60;;
3704;SDS011;1868;48.918;9.438;2022-12-05T13:25:56;13.10;;;9.13;;
3704;SDS011;1868;48.918;9.438;2022-12-05T13:28:27;16.23;;;9.70;;
3704;SDS011;1868;48.918;9.438;2022-12-05T13:30:59;15.70;;;9.20;;
3704;SDS011;1868;48.918;9.438;2022-12-05T13:33:31;14.40;;;8.50;;
3704;SDS011;1868;48.918;9.438;2022-12-05T13:36:07;13.53;;;9.20;;
3704;SDS011;1868;48.918;9.438;2022-12-05T13:38:57;14.70;;;10.50;;
3704;SDS011;1868;48.918;9.438;2022-12-05T13:41:46;14.13;;;10.07;;
3704;SDS011;1868;48.918;9.438;2022-12-05T13:44:37;18.70;;;12.47;;
3704;SDS011;1868;48.918;9.438;2022-12-05T13:47:18;15.53;;;10.23;;
3704;SDS011;1868;48.918;9.438;2022-12-05T13:49:55;13.37;;;8.93;;
3704;SDS011;1868;48.918;9.438;2022-12-05T13:52:40;13.37;;;9.53;;
3704;SDS011;1868;48.918;9.438;2022-12-05T13:55:21;13.97;;;10.13;;
3704;SDS011;1868;48.918;9.438;2022-12-05T13:58:01;13.57;;;8.70;;
3704;SDS011;1868;48.918;9.438;2022-12-05T14:10:12;13.00;;;9.37;;
3704;SDS011;1868;48.918;9.438;2022-12-05T14:12:47;10.60;;;8.20;;
3704;SDS011;1868;48.918;9.438;2022-12-05T14:18:09;12.20;;;8.90;;
3704;SDS011;1868;48.918;9.438;2022-12-05T14:20:46;13.00;;;8.83;;
3704;SDS011;1868;48.918;9.438;2022-12-05T14:23:34;15.43;;;8.90;;
3704;SDS011;1868;48.918;9.438;2022-12-05T14:26:31;12.70;;;8.70;;
3704;SDS011;1868;48.918;9.438;2022-12-05T14:29:26;10.53;;;8.03;;
3704;SDS011;1868;48.918;9.438;2022-12-05T14:32:08;13.00;;;8.80;;
3704;SDS011;1868;48.918;9.438;2022-12-05T14:34:56;12.77;;;9.00;;
3704;SDS011;1868;48.918;9.438;2022-12-05T14:37:32;11.87;;;8.40;;
3704;SDS011;1868;48.918;9.438;2022-12-05T14:40:15;10.30;;;8.13;;
3704;SDS011;1868;48.918;9.438;2022-12-05T14:42:51;12.47;;;8.90;;
3704;SDS011;1868;48.918;9.438;2022-12-05T14:45:31;11.90;;;8.73;;
3704;SDS011;1868;48.918;9.438;2022-12-05T14:48:03;12.40;;;8.70;;
3704;SDS011;1868;48.918;9.438;2022-12-05T14:50:52;10.53;;;8.50;;
3704;SDS011;1868;48.918;9.438;2022-12-05T14:53:26;13.63;;;8.27;;
3704;SDS011;1868;48.918;9.438;2022-12-05T14:56:08;20.67;;;13.87;;
3704;SDS011;1868;48.918;9.438;2022-12-05T14:58:43;10.57;;;8.60;;
3704;SDS011;1868;48.918;9.438;2022-12-05T15:01:17;11.43;;;8.33;;
3704;SDS011;1868;48.918;9.438;2022-12-05T15:06:43;13.53;;;7.73;;
3704;SDS011;1868;48.918;9.438;2022-12-05T15:12:14;18.70;;;9.33;;
3704;SDS011;1868;48.918;9.438;2022-12-05T15:14:51;9.40;;;7.57;;
3704;SDS011;1868;48.918;9.438;2022-12-05T15:17:28;11.60;;;8.70;;
3704;SDS011;1868;48.918;9.438;2022-12-05T15:20:04;12.87;;;8.80;;
3704;SDS011;1868;48.918;9.438;2022-12-05T15:22:41;12.77;;;8.90;;
3704;SDS011;1868;48.918;9.438;2022-12-05T15:25:13;12.30;;;8.40;;
3704;SDS011;1868;48.918;9.438;2022-12-05T15:27:59;10.60;;;8.50;;
3704;SDS011;1868;48.918;9.438;2022-12-05T15:30:33;13.07;;;8.43;;
3704;SDS011;1868;48.918;9.438;2022-12-05T15:33:07;11.63;;;8.90;;
3704;SDS011;1868;48.918;9.438;2022-12-05T15:35:39;15.20;;;10.63;;
3704;SDS011;1868;48.918;9.438;2022-12-05T15:38:10;17.00;;;10.97;;
3704;SDS011;1868;48.918;9.438;2022-12-05T15:40:52;10.73;;;8.47;;
3704;SDS011;1868;48.918;9.438;2022-12-05T15:43:25;12.27;;;8.80;;
3704;SDS011;1868;48.918;9.438;2022-12-05T15:46:06;10.83;;;8.30;;
3704;SDS011;1868;48.918;9.438;2022-12-05T15:48:49;10.60;;;8.53;;
3704;SDS011;1868;48.918;9.438;2022-12-05T15:51:23;11.67;;;8.97;;
3704;SDS011;1868;48.918;9.438;2022-12-05T15:53:58;10.67;;;7.83;;
3704;SDS011;1868;48.918;9.438;2022-12-05T15:56:32;13.83;;;8.57;;
3704;SDS011;1868;48.918;9.438;2022-12-05T15:59:09;13.60;;;8.90;;
3704;SDS011;1868;48.918;9.438;2022-12-05T16:01:44;11.40;;;8.53;;
3704;SDS011;1868;48.918;9.438;2022-12-05T16:04:18;13.93;;;8.73;;
3704;SDS011;1868;48.918;9.438;2022-12-05T16:06:55;10.87;;;8.13;;